2011 KEILA (2011302N13062)


On this page: IBTrACS data - Map and Plots - Positions - Intensities - Original source data

Summary

Start Oct 29
End Nov 5
Basin NI
LMI 55 kt
Sources jtwc_io
newdelhi
In WMO? Yes
Previous storm 2011 RINA (NA)
Previous in basin 2011 TWO (NI)
Concurrent storms 2011 RINA (NA)
2011 KEILA (NI)
Next in basin 2011 FOUR (NI)
Next storm 2011 FOUR (NI)

top of page IBTrACS Data: File Access

No storm imagery available

top of page Plots:

Map of storm track will not appear if FTP is down
Time series of cyclone Maximum Sustained Wind will not appear if FTP is down
Time series of cyclone Minimum Central Pressure will not appear if FTP is down

top of page Track Data:Position

jtwc_io newdelhi
Date Lat Lon Lat Lon
2011-10-29 06:00:00 13.0 62.0
2011-10-29 12:00:00 13.0 61.0
2011-10-29 18:00:00 13.0 61.0
2011-10-30 00:00:00 13.0 60.5
2011-10-30 06:00:00 13.0 60.0
2011-10-30 12:00:00 13.5 59.5
2011-10-30 18:00:00 14.0 59.0
2011-10-31 00:00:00 14.5 59.0
2011-10-31 06:00:00 16.0 57.0
2011-10-31 12:00:00 16.0 57.5
2011-10-31 18:00:00 16.0 57.0
2011-11-01 00:00:00 15.7 56.8 16.0 56.5
2011-11-01 06:00:00 15.8 56.3 16.0 56.0
2011-11-01 12:00:00 15.9 55.8 16.0 55.5
2011-11-01 18:00:00 16.0 55.4 16.0 55.5
2011-11-02 00:00:00 16.2 55.2 16.0 55.3
2011-11-02 06:00:00 16.5 55.0 16.0 54.5
2011-11-02 12:00:00 16.9 55.0 16.5 54.5
2011-11-02 18:00:00 16.9 54.8 17.1 54.2
2011-11-03 00:00:00 16.8 54.9 17.1 54.2
2011-11-03 06:00:00 17.1 55.0 17.1 54.2
2011-11-03 12:00:00 17.2 55.3 17.0 54.5
2011-11-03 18:00:00 17.1 55.5 17.0 54.8
2011-11-04 00:00:00 16.6 54.9 17.0 55.0
2011-11-04 06:00:00 16.3 54.3 16.0 55.0
jtwc_io newdelhi
2011-11-04 12:00:00 16.0 53.9
2011-11-04 18:00:00 15.9 53.5
2011-11-05 00:00:00 16.0 53.0
2011-11-05 06:00:00 16.6 52.6

top of pageTrack Data:Intensity

jtwc_io newdelhi
Date Wind Pres Wind Pres
2011-10-29 06:00:00 25. 1004.
2011-10-29 12:00:00 25. 1004.
2011-10-29 18:00:00 25. 1004.
2011-10-30 00:00:00 25. 1004.
2011-10-30 06:00:00 25. 1002.
2011-10-30 12:00:00 25. 1002.
2011-10-30 18:00:00 25. 1002.
2011-10-31 00:00:00 25. 1002.
2011-10-31 06:00:00 25. 1000.
2011-10-31 12:00:00 25. 1000.
2011-10-31 18:00:00 25. 1000.
2011-11-01 00:00:00 15. 1010. 25. 1000.
2011-11-01 06:00:00 20. 1007. 30. 1000.
2011-11-01 12:00:00 30. 1000. 30. 1000.
2011-11-01 18:00:00 30. 998. 30. 1000.
2011-11-02 00:00:00 35. 996. 30. 1000.
2011-11-02 06:00:00 40. 993. 35. 996.
2011-11-02 12:00:00 40. 993. 35. 996.
2011-11-02 18:00:00 45. 989. 30. 1000.
2011-11-03 00:00:00 50. 985. 30. 1000.
2011-11-03 06:00:00 55. 982. 30. 1000.
2011-11-03 12:00:00 50. 985. 30. 1000.
2011-11-03 18:00:00 45. 989. 30. 1001.
2011-11-04 00:00:00 40. 993. 30. 1001.
2011-11-04 06:00:00 30. 1000. 25. 1002.
jtwc_io newdelhi
2011-11-04 12:00:00 30. 1000.
2011-11-04 18:00:00 30. 1000.
2011-11-05 00:00:00 25. 1004.
2011-11-05 06:00:00 25. 1004.

top of page Links to source data

Source Source file Format
jtwc_io bio032011.dat ATCF
newdelhi New_Delhi_Tropical_Cyclone_Track_and_Intensity_Current.csv:Line=3498 New Delhi CSV file (from Excel file)